METAR Data

Data at: 0943 UTC 17 Nov 2018

METAR for:KJFK (New York/Kennedy Int, NY, US)
Text:KJFK 170851Z 27016KT 10SM BKN041 04/00 A3004 RMK AO2 SLP172 T00440000 51013 $
Temperature: 4.4°C ( 40°F)
Dewpoint: 0.0°C ( 32°F) [RH = 73%]
Pressure (altimeter):30.04 inches Hg (1017.4 mb) [Sea level pressure: 1017.2 mb]
Winds:from the W (270 degrees) at 18 MPH (16 knots; 8.2 m/s)
Visibility:10 or more sm (16+ km)
Ceiling:4100 feet AGL
Clouds: broken clouds at 4100 feet AGL
QC Flag:SOME DATA ABOVE MAY BE INACCURATE!!!"$" is an indication the sensor requires maintenance.